ADDS METAR Data INFO
IDs: Format: Raw Decoded Include TAF

Data at: 0449 UTC 22 Apr 2018

METAR for:KCMH (Columbus Intl, OH, US)
Text:KCMH 220351Z 02004KT 10SM BKN130 OVC180 11/M06 A3034 RMK AO2 SLP277 T01061061
Temperature: 10.6°C ( 51°F)
Dewpoint: -6.1°C ( 21°F) [RH = 30%]
Pressure (altimeter):30.34 inches Hg (1027.5 mb) [Sea level pressure: 1027.7 mb]
Winds:from the NNE (20 degrees) at 5 MPH (4 knots; 2.1 m/s)
Visibility:10 or more sm (16+ km)
Ceiling:13000 feet AGL
Clouds: broken clouds at 13000 feet AGL, overcast cloud deck at 18000 feet AGL